Time;durP1;ratioP1;P1;durP2;ratioP2;P2;SDS_P1;SDS_P2;PMS_P1;PMS_P2;Temp;Humidity;BMP_temperature;BMP_pressure;BME280_temperature;BME280_humidity;BME280_pressure;Samples;Min_cycle;Max_cycle;Signal;HPM_P1;HPM_P2
2022/04/05 00:00:39;;;;;;;9.90;8.45;;;;;;;1.90;75.31;95283.61;1629089;87;21045;-82
2022/04/05 00:03:05;;;;;;;10.25;9.25;;;;;;;1.91;75.31;95286.02;1654978;87;21408;-82
2022/04/05 00:05:30;;;;;;;9.65;8.53;;;;;;;1.93;75.16;95276.89;1654245;87;21504;-82
2022/04/05 00:07:56;;;;;;;9.58;8.58;;;;;;;1.93;75.47;95266.17;1654437;87;21042;-82
2022/04/05 00:10:23;;;;;;;9.08;8.10;;;;;;;1.95;75.37;95273.70;1629433;88;21053;-82
2022/04/05 00:12:48;;;;;;;9.90;8.90;;;;;;;1.94;75.19;95269.05;1654490;87;21029;-82
2022/04/05 00:15:15;;;;;;;8.45;7.47;;;;;;;1.96;75.05;95251.80;1629327;88;21373;-82
2022/04/05 00:17:41;;;;;;;8.98;7.87;;;;;;;1.98;75.03;95256.75;1654440;87;21053;-82
2022/04/05 00:20:07;;;;;;;7.62;6.80;;;;;;;2.00;75.02;95262.05;1629548;88;20981;-81
2022/04/05 00:22:34;;;;;;;10.68;8.18;;;;;;;2.00;75.49;95256.92;1654466;87;21357;-82
2022/04/05 00:25:00;;;;;;;10.20;8.93;;;;;;;1.99;75.60;95245.06;1629429;88;21020;-82
2022/04/05 00:27:26;;;;;;;8.98;7.47;;;;;;;1.98;75.56;95241.38;1654547;87;21013;-82
2022/04/05 00:29:55;;;;;;;9.30;8.40;;;;;;;1.98;75.82;95242.66;1654378;87;21177;-82
2022/04/05 00:32:21;;;;;;;9.15;8.25;;;;;;;1.97;75.62;95245.70;1634382;87;21381;-82
2022/04/05 00:34:46;;;;;;;8.68;7.70;;;;;;;1.98;75.77;95242.66;1626326;88;21026;-82
2022/04/05 00:37:12;;;;;;;9.73;8.10;;;;;;;1.98;76.15;95229.37;1626618;88;21046;-82
2022/04/05 00:39:38;;;;;;;8.83;7.92;;;;;;;1.97;76.41;95240.59;1626424;87;20986;-82
2022/04/05 00:42:04;;;;;;;10.30;8.98;;;;;;;1.98;75.87;95233.70;1626622;88;20989;-82
2022/04/05 00:44:30;;;;;;;10.58;7.85;;;;;;;1.99;75.85;95225.05;1626481;88;21381;-81
2022/04/05 00:46:56;;;;;;;11.00;9.38;;;;;;;2.01;76.15;95234.19;1633366;87;21043;-82
2022/04/05 00:49:31;;;;;;;9.83;8.83;;;;;;;1.99;76.08;95238.66;1643758;87;20999;-82
2022/04/05 00:51:58;;;;;;;9.50;8.43;;;;;;;1.98;76.07;95221.69;1643220;86;21031;-82
2022/04/05 00:54:26;;;;;;;8.28;7.42;;;;;;;1.98;76.16;95228.58;1643622;87;21127;-82
2022/04/05 00:56:56;;;;;;;7.90;7.10;;;;;;;1.98;76.49;95222.97;1643745;87;20981;-82
2022/04/05 00:59:22;;;;;;;9.55;8.20;;;;;;;2.00;76.49;95226.66;1643367;87;21111;-82
2022/04/05 01:01:48;;;;;;;7.85;7.12;;;;;;;2.00;76.47;95219.77;1649675;87;21070;-82
2022/04/05 01:04:13;;;;;;;8.83;7.78;;;;;;;2.00;76.94;95230.02;1654500;87;21110;-82
2022/04/05 01:06:40;;;;;;;8.05;6.85;;;;;;;2.00;76.86;95218.97;1654301;87;21464;-81
2022/04/05 01:09:07;;;;;;;7.72;7.00;;;;;;;1.99;77.15;95226.33;1654379;87;21062;-82
2022/04/05 01:11:33;;;;;;;8.38;7.58;;;;;;;1.97;77.61;95219.29;1619351;88;21509;-82
2022/04/05 01:13:59;;;;;;;7.90;7.12;;;;;;;1.98;77.00;95232.42;1604533;89;21108;-82
2022/04/05 01:16:25;;;;;;;7.92;7.12;;;;;;;1.98;77.18;95219.12;1604694;89;21069;-82
2022/04/05 01:18:50;;;;;;;7.53;6.83;;;;;;;1.98;77.48;95231.14;1604791;89;21041;-82
2022/04/05 01:21:16;;;;;;;7.67;6.97;;;;;;;1.98;77.76;95217.05;1604720;89;21073;-82
2022/04/05 01:24:05;;;;;;;7.05;6.35;;;;;;;1.97;77.84;95231.62;1604742;89;21029;-82
2022/04/05 01:26:48;;;;;;;8.30;7.50;;;;;;;1.95;78.28;95218.17;1583561;90;21423;-82
2022/04/05 01:29:15;;;;;;;6.75;6.15;;;;;;;1.96;78.06;95219.77;1625124;87;21082;-82
2022/04/05 01:31:51;;;;;;;7.92;7.12;;;;;;;1.97;78.27;95225.69;1643543;87;21467;-82
2022/04/05 01:34:20;;;;;;;7.30;6.60;;;;;;;1.96;78.08;95217.69;1626255;88;21039;-82
2022/04/05 01:36:50;;;;;;;7.15;6.45;;;;;;;1.95;78.53;95211.77;1626410;87;21009;-82
2022/04/05 01:39:17;;;;;;;7.53;6.30;;;;;;;1.91;78.79;95207.09;1626299;88;21054;-82
2022/04/05 01:41:44;;;;;;;7.97;6.83;;;;;;;1.88;79.34;95212.53;1626464;88;21019;-82
2022/04/05 01:44:12;;;;;;;6.45;5.85;;;;;;;1.85;79.98;95211.09;1626112;88;21500;-82
2022/04/05 01:46:38;;;;;;;6.50;5.90;;;;;;;1.84;79.54;95208.69;1626157;87;21050;-82
2022/04/05 01:49:13;;;;;;;7.08;6.47;;;;;;;1.84;80.06;95203.56;1626430;88;21042;-82
2022/04/05 01:51:38;;;;;;;7.58;6.87;;;;;;;1.84;79.79;95208.69;1626487;88;21444;-82
2022/04/05 01:54:07;;;;;;;6.30;5.72;;;;;;;1.83;80.26;95211.73;1626423;88;21030;-82
2022/04/05 01:56:40;;;;;;;8.60;7.75;;;;;;;1.80;80.23;95207.72;1626514;88;21062;-82
2022/04/05 01:59:06;;;;;;;6.08;5.58;;;;;;;1.78;81.81;95180.16;1624198;88;21066;-82
2022/04/05 02:01:32;;;;;;;6.58;5.92;;;;;;;1.78;80.96;95197.28;1626842;87;21396;-82
2022/04/05 02:03:57;;;;;;;5.87;5.22;;;;;;;1.78;80.71;95201.93;1618518;88;21433;-82
2022/04/05 02:06:24;;;;;;;7.03;6.42;;;;;;;1.76;81.22;95193.60;1618460;89;21008;-82
2022/04/05 02:08:50;;;;;;;7.37;6.67;;;;;;;1.75;80.61;95195.84;1618203;88;21015;-82
2022/04/05 02:11:16;;;;;;;6.00;5.40;;;;;;;1.74;81.02;95195.52;1618375;87;21075;-82
2022/04/05 02:13:42;;;;;;;7.35;5.83;;;;;;;1.72;81.12;95197.92;1618376;88;21096;-82
2022/04/05 02:16:08;;;;;;;5.95;5.45;;;;;;;1.71;81.27;95194.56;1618569;88;21008;-82
2022/04/05 02:18:36;;;;;;;6.15;5.60;;;;;;;1.70;81.37;95199.36;1618410;87;21048;-82
2022/04/05 02:21:02;;;;;;;5.92;5.33;;;;;;;1.68;81.41;95188.95;1618341;87;21048;-82
2022/04/05 02:23:28;;;;;;;6.87;5.95;;;;;;;1.66;82.21;95181.43;1618536;88;21358;-82
2022/04/05 02:25:53;;;;;;;6.85;6.12;;;;;;;1.63;81.72;95184.31;1605227;89;20984;-82
2022/04/05 02:28:19;;;;;;;5.72;5.15;;;;;;;1.61;82.36;95181.55;1618517;89;21360;-82
2022/04/05 02:30:45;;;;;;;4.65;4.08;;;;;;;1.61;82.83;95175.16;1619748;87;21436;-83
2022/04/05 02:33:10;;;;;;;5.37;4.87;;;;;;;1.58;82.86;95173.71;1636131;87;21023;-82
2022/04/05 02:35:37;;;;;;;4.58;4.17;;;;;;;1.58;82.80;95167.31;1618352;88;20989;-82
2022/04/05 02:38:03;;;;;;;4.45;4.05;;;;;;;1.56;83.08;95167.95;1618391;88;21339;-82
2022/04/05 02:40:29;;;;;;;5.87;5.03;;;;;;;1.53;83.34;95155.47;1618301;89;21030;-83
2022/04/05 02:42:55;;;;;;;4.37;3.98;;;;;;;1.55;83.43;95162.98;1618127;89;21091;-82
2022/04/05 02:45:22;;;;;;;4.70;4.30;;;;;;;1.57;83.39;95165.71;1618301;87;21502;-83
2022/04/05 02:47:49;;;;;;;4.60;4.20;;;;;;;1.58;83.64;95154.52;1618454;89;21016;-83
2022/04/05 02:50:17;;;;;;;4.50;4.10;;;;;;;1.62;83.36;95149.88;1618376;88;21024;-83
2022/04/05 02:52:42;;;;;;;5.17;4.58;;;;;;;1.62;83.59;95144.27;1618329;87;21020;-83
2022/04/05 02:55:08;;;;;;;3.98;3.58;;;;;;;1.64;83.95;95159.03;1618426;88;21067;-83
2022/04/05 02:57:38;;;;;;;4.47;4.10;;;;;;;1.64;84.16;95165.42;1620155;87;21030;-82
2022/04/05 03:00:07;;;;;;;4.40;4.00;;;;;;;1.65;83.86;95161.91;1631991;87;21453;-83
2022/04/05 03:02:36;;;;;;;5.00;4.60;;;;;;;1.67;83.78;95163.83;1642081;87;20996;-83
2022/04/05 03:05:05;;;;;;;4.53;4.12;;;;;;;1.67;83.97;95162.55;1629266;87;20967;-83
2022/04/05 03:07:30;;;;;;;7.62;6.92;;;;;;;1.67;83.80;95166.39;1627970;87;21396;-83
2022/04/05 03:09:56;;;;;;;4.67;4.15;;;;;;;1.70;83.65;95164.79;1628002;88;21041;-83
2022/04/05 03:12:22;;;;;;;6.58;5.90;;;;;;;1.73;83.79;95159.83;1627817;88;20986;-83
2022/04/05 03:14:48;;;;;;;5.55;5.05;;;;;;;1.73;83.70;95159.34;1651457;87;20947;-83
2022/04/05 03:17:13;;;;;;;4.62;4.22;;;;;;;1.75;83.77;95149.75;1654297;87;21001;-83
2022/04/05 03:19:39;;;;;;;5.55;5.05;;;;;;;1.75;84.13;95151.02;1654631;87;21443;-83
2022/04/05 03:22:05;;;;;;;4.70;4.30;;;;;;;1.76;84.09;95156.47;1654426;87;21008;-83
2022/04/05 03:24:32;;;;;;;6.05;5.45;;;;;;;1.78;83.88;95157.11;1654415;87;20981;-83
2022/04/05 03:26:58;;;;;;;5.00;4.60;;;;;;;1.83;83.51;95157.94;1654566;87;21320;-83
2022/04/05 03:29:24;;;;;;;5.33;4.83;;;;;;;1.87;83.45;95163.06;1654463;87;20981;-83
2022/04/05 03:31:50;;;;;;;4.90;4.42;;;;;;;1.90;83.36;95164.50;1659512;86;21125;-83
2022/04/05 03:34:15;;;;;;;5.12;4.70;;;;;;;1.90;83.93;95148.65;1658461;86;21405;-83
2022/04/05 03:36:43;;;;;;;5.35;4.90;;;;;;;1.90;83.78;95144.01;1654525;87;20950;-83
2022/04/05 03:39:10;;;;;;;5.28;4.78;;;;;;;1.92;83.59;95152.33;1654307;87;21058;-82
2022/04/05 03:41:37;;;;;;;4.87;4.42;;;;;;;1.94;83.92;95134.56;1654501;87;21073;-83
2022/04/05 03:44:03;;;;;;;5.50;5.00;;;;;;;1.98;83.62;95145.31;1654518;87;21484;-83
2022/04/05 03:46:30;;;;;;;4.72;4.33;;;;;;;2.02;83.74;95146.59;1654186;87;21105;-82
2022/04/05 03:48:56;;;;;;;4.70;4.30;;;;;;;2.06;83.08;95149.95;1654628;87;21381;-83
2022/04/05 03:51:21;;;;;;;4.08;3.77;;;;;;;2.08;83.29;95138.25;1646344;87;21010;-82
2022/04/05 03:53:47;;;;;;;5.42;4.92;;;;;;;2.08;83.12;95145.46;1626540;87;20958;-82
2022/04/05 03:56:13;;;;;;;5.03;4.40;;;;;;;2.09;83.41;95148.83;1626691;88;20934;-82
2022/04/05 03:58:39;;;;;;;5.53;4.67;;;;;;;2.10;83.17;95149.95;1626571;88;21156;-82
2022/04/05 04:01:06;;;;;;;4.53;4.12;;;;;;;2.13;83.06;95149.33;1625094;87;21057;-82
2022/04/05 04:03:35;;;;;;;5.03;4.62;;;;;;;2.15;83.04;95153.81;1641341;87;21004;-82
2022/04/05 04:06:00;;;;;;;4.72;4.33;;;;;;;2.16;82.83;95148.52;1643576;86;21012;-83
2022/04/05 04:08:27;;;;;;;4.87;4.47;;;;;;;2.17;83.06;95145.00;1643188;87;21149;-82
2022/04/05 04:10:53;;;;;;;4.72;4.33;;;;;;;2.18;82.61;95160.69;1643387;87;21418;-82
2022/04/05 04:13:19;;;;;;;5.08;4.67;;;;;;;2.18;83.11;95156.85;1643335;87;21058;-82
2022/04/05 04:15:45;;;;;;;5.58;5.08;;;;;;;2.18;82.96;95154.28;1643618;87;21063;-82
2022/04/05 04:18:10;;;;;;;5.60;5.10;;;;;;;2.17;83.19;95150.12;1617929;87;21054;-83
2022/04/05 04:20:38;;;;;;;4.70;4.30;;;;;;;2.17;82.90;95141.16;1626324;88;21404;-82
2022/04/05 04:23:05;;;;;;;5.22;4.72;;;;;;;2.20;82.52;95150.28;1626443;88;20975;-82
2022/04/05 04:25:31;;;;;;;4.72;4.25;;;;;;;2.23;82.58;95161.48;1625327;87;21000;-82
2022/04/05 04:27:58;;;;;;;4.47;4.17;;;;;;;2.26;82.62;95156.83;1620134;88;20978;-82
2022/04/05 04:30:23;;;;;;;5.40;4.90;;;;;;;2.26;82.81;95144.02;1622525;88;21117;-82
2022/04/05 04:32:49;;;;;;;6.15;5.65;;;;;;;2.30;82.65;95147.09;1654382;87;21447;-82
2022/04/05 04:35:15;;;;;;;5.90;5.37;;;;;;;2.30;82.51;95161.98;1629778;87;21049;-82
2022/04/05 04:37:40;;;;;;;5.58;5.05;;;;;;;2.31;82.45;95154.61;1654315;87;21086;-82
2022/04/05 04:40:07;;;;;;;4.67;4.28;;;;;;;2.33;82.47;95165.50;1654465;87;21062;-82
2022/04/05 04:42:33;;;;;;;5.95;5.45;;;;;;;2.36;82.38;95163.09;1654526;87;21062;-83
2022/04/05 04:45:00;;;;;;;6.15;5.65;;;;;;;2.36;82.49;95165.66;1654449;87;20971;-82
2022/04/05 04:47:26;;;;;;;6.85;5.90;;;;;;;2.35;82.46;95153.32;1654468;87;21030;-82
2022/04/05 04:49:51;;;;;;;7.65;6.50;;;;;;;2.35;82.67;95159.73;1654333;87;21001;-82
2022/04/05 04:52:17;;;;;;;5.45;4.95;;;;;;;2.34;82.60;95159.41;1654407;87;21013;-82
2022/04/05 04:54:43;;;;;;;6.95;4.92;;;;;;;2.37;82.39;95160.37;1654302;87;21042;-82
2022/04/05 04:57:09;;;;;;;5.28;4.80;;;;;;;2.38;82.43;95168.37;1654360;87;21058;-82
2022/04/05 04:59:35;;;;;;;4.83;4.42;;;;;;;2.41;82.35;95161.64;1653747;87;21435;-82
2022/04/05 05:02:01;;;;;;;5.15;4.65;;;;;;;2.41;82.61;95169.33;1637578;87;21010;-82
2022/04/05 05:04:27;;;;;;;6.20;5.70;;;;;;;2.38;83.00;95168.37;1644438;87;21006;-82
2022/04/05 05:06:53;;;;;;;5.45;4.95;;;;;;;2.36;82.67;95168.22;1644883;87;21018;-82
2022/04/05 05:09:20;;;;;;;4.75;4.30;;;;;;;2.34;82.66;95177.36;1644743;87;21042;-82
2022/04/05 05:11:46;;;;;;;4.90;4.40;;;;;;;2.36;83.20;95175.91;1644612;87;21017;-82
2022/04/05 05:14:12;;;;;;;4.10;3.70;;;;;;;2.35;83.32;95164.06;1644342;87;21021;-82
2022/04/05 05:16:37;;;;;;;4.03;3.62;;;;;;;2.35;83.01;95166.63;1644863;87;21010;-82
2022/04/05 05:19:05;;;;;;;4.10;3.67;;;;;;;2.32;83.34;95175.44;1626602;87;21363;-84
2022/04/05 05:21:31;;;;;;;4.37;3.98;;;;;;;2.28;83.40;95170.32;1618526;88;21047;-82
2022/04/05 05:23:56;;;;;;;4.10;3.70;;;;;;;2.27;84.09;95175.58;1637986;87;20974;-81
2022/04/05 05:26:22;;;;;;;3.72;3.42;;;;;;;2.27;83.62;95180.22;1626356;87;21010;-82
2022/04/05 05:28:48;;;;;;;5.30;4.10;;;;;;;2.29;83.53;95171.92;1623788;87;21050;-81
2022/04/05 05:31:14;;;;;;;3.62;3.33;;;;;;;2.32;83.39;95171.59;1621643;87;21031;-81
2022/04/05 05:33:39;;;;;;;3.80;3.40;;;;;;;2.33;83.89;95173.20;1616177;87;20986;-81
2022/04/05 05:36:05;;;;;;;6.10;5.55;;;;;;;2.32;83.89;95175.44;1616767;87;21010;-81
2022/04/05 05:38:31;;;;;;;4.10;3.75;;;;;;;2.30;83.90;95162.47;1644764;87;20947;-81
2022/04/05 05:40:56;;;;;;;3.90;3.50;;;;;;;2.29;83.78;95171.12;1644732;87;20975;-81
2022/04/05 05:43:23;;;;;;;5.97;5.35;;;;;;;2.30;84.08;95186.81;1644724;87;21322;-81
2022/04/05 05:45:50;;;;;;;4.33;3.92;;;;;;;2.30;84.39;95185.53;1644404;87;21066;-81
2022/04/05 05:48:16;;;;;;;3.70;3.40;;;;;;;2.30;84.32;95182.97;1644785;87;21412;-81
2022/04/05 05:50:41;;;;;;;3.92;3.33;;;;;;;2.29;84.86;95169.36;1644745;87;20998;-81
2022/04/05 05:53:07;;;;;;;3.50;3.02;;;;;;;2.29;84.64;95187.30;1628632;87;21379;-81
2022/04/05 05:55:33;;;;;;;3.72;3.42;;;;;;;2.29;84.22;95189.06;1618519;89;21407;-81
2022/04/05 05:57:58;;;;;;;3.22;2.65;;;;;;;2.28;84.44;95184.41;1618438;89;20986;-81
2022/04/05 06:00:24;;;;;;;3.25;2.87;;;;;;;2.31;84.36;95196.91;1623774;85;21066;-81
2022/04/05 06:02:55;;;;;;;3.30;3.00;;;;;;;2.33;84.71;95193.70;1653316;87;21033;-80
2022/04/05 06:05:21;;;;;;;4.05;3.47;;;;;;;2.37;84.89;95191.61;1645251;87;21010;-81
2022/04/05 06:07:47;;;;;;;2.62;2.42;;;;;;;2.33;84.56;95197.55;1630023;87;21460;-81
2022/04/05 06:10:13;;;;;;;2.95;2.75;;;;;;;2.31;84.78;95193.06;1627698;87;20943;-81
2022/04/05 06:12:40;;;;;;;2.77;2.35;;;;;;;2.32;84.58;95197.70;1627713;87;20990;-81
2022/04/05 06:15:08;;;;;;;3.58;2.98;;;;;;;2.32;84.74;95195.95;1626294;87;21118;-81
2022/04/05 06:17:48;;;;;;;2.80;2.60;;;;;;;2.32;84.56;95195.95;1626359;88;21022;-81
2022/04/05 06:20:20;;;;;;;2.75;2.47;;;;;;;2.35;84.41;95189.21;1648035;87;20986;-81
2022/04/05 06:22:48;;;;;;;2.15;1.95;;;;;;;2.39;84.56;95198.66;1647803;87;21031;-81
2022/04/05 06:25:19;;;;;;;2.65;2.17;;;;;;;2.38;84.68;95204.75;1625917;87;21036;-81
2022/04/05 06:27:45;;;;;;;4.05;2.85;;;;;;;2.38;84.68;95205.55;1631205;87;21449;-81
2022/04/05 06:30:11;;;;;;;3.17;2.55;;;;;;;2.36;84.70;95204.11;1634139;87;21061;-81
2022/04/05 06:32:37;;;;;;;3.70;2.20;;;;;;;2.33;84.91;95209.08;1627788;87;21018;-82
2022/04/05 06:35:04;;;;;;;1.90;1.77;;;;;;;2.28;84.94;95200.28;1631199;87;21001;-81
2022/04/05 06:37:29;;;;;;;3.12;2.50;;;;;;;2.35;85.01;95210.20;1626783;87;21006;-81
2022/04/05 06:39:55;;;;;;;4.78;2.75;;;;;;;2.35;84.92;95212.28;1627718;88;20982;-81
2022/04/05 06:42:21;;;;;;;2.70;2.50;;;;;;;2.38;85.00;95213.23;1626701;87;21404;-81
2022/04/05 06:44:47;;;;;;;2.72;2.50;;;;;;;2.41;84.83;95214.20;1626275;87;21368;-81
2022/04/05 06:47:13;;;;;;;2.80;2.47;;;;;;;2.46;84.96;95216.30;1626787;87;21006;-81
2022/04/05 06:49:39;;;;;;;2.62;2.42;;;;;;;2.49;84.75;95217.26;1627436;87;21415;-81
2022/04/05 06:52:05;;;;;;;3.52;2.83;;;;;;;2.55;84.74;95223.50;1626394;88;21009;-80
2022/04/05 06:54:31;;;;;;;3.47;3.05;;;;;;;2.56;84.68;95219.49;1626055;87;21018;-81
2022/04/05 06:56:56;;;;;;;3.65;2.70;;;;;;;2.57;84.74;95222.85;1626353;87;21368;-81
2022/04/05 06:59:22;;;;;;;3.27;2.02;;;;;;;2.55;84.87;95222.22;1626111;87;21038;-81
2022/04/05 07:01:48;;;;;;;2.95;2.65;;;;;;;2.56;84.70;95227.66;1644352;85;21085;-81
2022/04/05 07:04:14;;;;;;;4.30;3.27;;;;;;;2.58;84.93;95218.05;1644605;87;21105;-81
2022/04/05 07:06:40;;;;;;;4.10;3.37;;;;;;;2.60;84.51;95218.68;1626410;87;21361;-81
2022/04/05 07:09:07;;;;;;;3.37;2.90;;;;;;;2.64;84.50;95219.98;1626871;87;21026;-81
2022/04/05 07:11:33;;;;;;;2.62;2.10;;;;;;;2.70;84.67;95217.56;1631079;87;20983;-81
2022/04/05 07:13:59;;;;;;;2.25;2.05;;;;;;;2.73;84.54;95226.70;1627685;87;21077;-81
2022/04/05 07:16:25;;;;;;;3.10;2.10;;;;;;;2.76;84.47;95219.95;1626943;87;21384;-81
2022/04/05 07:18:51;;;;;;;2.85;2.20;;;;;;;2.77;84.45;95213.89;1625812;87;21050;-81
2022/04/05 07:21:20;;;;;;;3.00;2.80;;;;;;;2.79;84.40;95218.86;1626239;87;21057;-81
2022/04/05 07:23:44;;;;;;;3.92;2.50;;;;;;;2.80;84.32;95232.80;1638227;87;21453;-81
2022/04/05 07:26:10;;;;;;;3.77;2.40;;;;;;;2.83;84.74;95227.34;1629045;88;20949;-81
2022/04/05 07:28:36;;;;;;;2.17;1.62;;;;;;;2.86;84.29;95230.06;1645959;87;21002;-81
2022/04/05 07:31:03;;;;;;;3.02;1.90;;;;;;;2.85;84.16;95236.95;1626327;87;21069;-82
2022/04/05 07:33:29;;;;;;;3.77;2.60;;;;;;;2.88;84.24;95235.34;1628385;87;21026;-81
2022/04/05 07:35:55;;;;;;;2.20;2.00;;;;;;;2.87;84.25;95233.74;1627152;87;20981;-81
2022/04/05 07:38:20;;;;;;;3.10;1.87;;;;;;;2.90;84.05;95233.41;1627252;87;21400;-81
2022/04/05 07:40:49;;;;;;;3.40;2.58;;;;;;;2.94;84.28;95238.56;1629114;87;21922;-81
2022/04/05 07:43:23;;;;;;;3.40;2.40;;;;;;;2.94;84.03;95236.00;1630262;87;21084;-81
2022/04/05 07:45:50;;;;;;;3.80;2.80;;;;;;;3.00;84.23;95239.19;1629608;87;21414;-81
2022/04/05 07:48:20;;;;;;;2.87;2.02;;;;;;;3.09;83.92;95239.16;1626644;87;21133;-82
2022/04/05 07:50:47;;;;;;;2.52;2.33;;;;;;;3.13;83.82;95238.69;1626956;87;21050;-81
2022/04/05 07:53:14;;;;;;;5.62;3.35;;;;;;;3.14;83.71;95248.47;1627013;87;21167;-81
2022/04/05 07:55:40;;;;;;;5.47;3.22;;;;;;;3.14;83.75;95242.86;1626451;87;21113;-81
2022/04/05 07:58:05;;;;;;;4.75;2.75;;;;;;;3.14;83.81;95245.42;1626077;87;21010;-81
2022/04/05 08:00:31;;;;;;;2.02;1.80;;;;;;;3.13;83.46;95246.39;1628760;87;20994;-81
2022/04/05 08:02:57;;;;;;;2.12;1.50;;;;;;;3.19;83.67;95243.16;1614386;87;21040;-82
2022/04/05 08:05:27;;;;;;;2.42;2.00;;;;;;;3.19;83.52;95239.30;1618817;87;20980;-82
2022/04/05 08:07:53;;;;;;;3.15;1.98;;;;;;;3.22;83.17;95250.52;1644036;87;21032;-82
2022/04/05 08:10:20;;;;;;;3.12;1.80;;;;;;;3.25;83.22;95251.95;1644132;87;21058;-82
2022/04/05 08:12:47;;;;;;;2.12;1.55;;;;;;;3.29;83.41;95251.97;1644305;87;21369;-82
2022/04/05 08:15:17;;;;;;;3.22;2.12;;;;;;;3.28;82.76;95250.38;1644207;87;21018;-82
2022/04/05 08:17:42;;;;;;;2.08;1.87;;;;;;;3.33;83.57;95255.80;1631916;86;21016;-82
2022/04/05 08:20:09;;;;;;;1.82;1.57;;;;;;;3.35;83.05;95259.48;1618547;87;20992;-82
2022/04/05 08:22:35;;;;;;;1.80;1.70;;;;;;;3.33;82.95;95258.38;1639230;87;21039;-82
2022/04/05 08:25:01;;;;;;;1.80;1.45;;;;;;;3.32;82.84;95256.77;1639802;87;20979;-82
2022/04/05 08:27:27;;;;;;;2.70;1.77;;;;;;;3.33;82.80;95262.70;1645665;87;20998;-82
2022/04/05 08:29:53;;;;;;;2.77;2.35;;;;;;;3.41;82.84;95263.47;1644631;87;21488;-82
2022/04/05 08:32:18;;;;;;;4.47;3.42;;;;;;;3.50;83.07;95268.12;1624448;87;22098;-82
2022/04/05 08:34:45;;;;;;;5.97;3.90;;;;;;;3.58;83.00;95272.77;1618505;87;20985;-82
2022/04/05 08:37:12;;;;;;;3.42;3.12;;;;;;;3.67;82.89;95268.87;1617268;87;21054;-82
2022/04/05 08:39:39;;;;;;;2.75;2.08;;;;;;;3.70;82.52;95264.19;1616684;87;21515;-82
2022/04/05 08:42:05;;;;;;;2.72;2.30;;;;;;;3.70;82.06;95264.19;1609648;87;21015;-82
2022/04/05 08:44:31;;;;;;;3.87;3.00;;;;;;;3.71;82.24;95272.70;1644712;87;21464;-82
2022/04/05 08:47:00;;;;;;;3.22;2.50;;;;;;;3.71;82.13;95271.41;1644590;87;21030;-82
2022/04/05 08:49:28;;;;;;;2.75;2.22;;;;;;;3.75;82.28;95273.99;1636571;86;21053;-82
2022/04/05 08:51:54;;;;;;;3.02;2.05;;;;;;;3.83;82.24;95268.80;1624443;87;20998;-82
2022/04/05 08:54:19;;;;;;;2.30;2.10;;;;;;;3.86;81.61;95271.03;1644421;87;21045;-82
2022/04/05 08:56:47;;;;;;;2.50;2.17;;;;;;;3.82;81.66;95282.63;1644757;87;20974;-82
2022/04/05 08:59:14;;;;;;;3.00;2.25;;;;;;;3.86;81.82;95286.45;1644879;87;21022;-82
2022/04/05 09:01:41;;;;;;;2.33;2.12;;;;;;;3.93;81.78;95279.70;1622788;88;21587;-82
2022/04/05 09:04:07;;;;;;;2.65;2.37;;;;;;;3.98;81.65;95286.41;1626881;87;21051;-82
2022/04/05 09:06:35;;;;;;;3.58;2.60;;;;;;;3.95;80.87;95282.09;1626251;87;21347;-83
2022/04/05 09:09:16;;;;;;;2.85;2.33;;;;;;;3.91;81.10;95286.78;1622883;88;21098;-82
2022/04/05 09:11:46;;;;;;;3.33;2.45;;;;;;;3.86;81.29;95276.97;1622966;88;21097;-82
2022/04/05 09:14:12;;;;;;;2.52;2.25;;;;;;;3.81;81.27;95293.38;1623119;88;21105;-82
2022/04/05 09:16:38;;;;;;;2.42;2.22;;;;;;;3.87;81.53;95295.77;1633172;85;21042;-82
2022/04/05 09:19:14;;;;;;;2.40;2.20;;;;;;;3.92;81.48;95298.66;1654394;87;21448;-83
2022/04/05 09:21:58;;;;;;;2.80;2.47;;;;;;;3.88;81.25;95294.80;1654530;87;21009;-82
2022/04/05 09:24:36;;;;;;;3.25;2.92;;;;;;;3.86;81.54;95290.31;1654384;87;21420;-82
2022/04/05 09:27:02;;;;;;;3.12;2.83;;;;;;;3.88;81.67;95295.59;1654154;87;21389;-82
2022/04/05 09:29:51;;;;;;;3.12;2.50;;;;;;;3.98;81.36;95289.47;1652647;87;21046;-82
2022/04/05 09:32:37;;;;;;;2.83;2.45;;;;;;;4.04;81.37;95295.21;1643334;87;21377;-82
2022/04/05 09:35:04;;;;;;;3.58;2.95;;;;;;;4.06;81.19;95293.27;1654348;87;21452;-82
2022/04/05 09:37:29;;;;;;;3.50;3.20;;;;;;;4.14;81.32;95290.67;1627840;88;21063;-83
2022/04/05 09:40:18;;;;;;;5.28;4.22;;;;;;;4.23;81.31;95297.39;1627935;88;21034;-83
2022/04/05 09:43:12;;;;;;;4.03;3.62;;;;;;;4.25;81.29;95303.16;1633633;87;21361;-82
2022/04/05 09:45:52;;;;;;;3.62;3.30;;;;;;;4.27;81.06;95299.13;1623580;88;21396;-82
2022/04/05 09:48:20;;;;;;;3.62;3.30;;;;;;;4.28;81.02;95298.97;1650243;87;21034;-83
2022/04/05 09:51:10;;;;;;;4.03;3.40;;;;;;;4.28;80.80;95298.97;1642484;87;20985;-82
2022/04/05 09:53:47;;;;;;;3.85;3.55;;;;;;;4.27;80.79;95308.94;1627979;87;21109;-83
2022/04/05 09:56:29;;;;;;;4.95;4.17;;;;;;;4.22;80.43;95309.42;1639771;87;21122;-83
2022/04/05 09:59:06;;;;;;;5.00;4.10;;;;;;;4.19;80.57;95309.77;1649235;85;21000;-84
2022/04/05 10:01:34;;;;;;;4.85;4.45;;;;;;;4.21;80.60;95310.39;1629160;88;21108;-82
2022/04/05 10:04:17;;;;;;;4.62;4.05;;;;;;;4.22;80.66;95311.19;1621699;88;21541;-84
2022/04/05 10:06:48;;;;;;;4.40;4.00;;;;;;;4.29;80.67;95312.14;1605483;88;21099;-84
2022/04/05 10:09:16;;;;;;;4.53;3.92;;;;;;;4.36;80.78;95309.19;1608951;88;21054;-84
2022/04/05 10:11:43;;;;;;;4.28;3.87;;;;;;;4.43;80.23;95312.70;1604407;88;21022;-83
2022/04/05 10:14:11;;;;;;;4.37;4.08;;;;;;;4.48;80.22;95305.27;1618440;88;21112;-83
2022/04/05 10:16:37;;;;;;;4.20;3.80;;;;;;;4.59;80.01;95307.15;1605144;88;21072;-84
2022/04/05 10:19:09;;;;;;;3.85;3.50;;;;;;;4.67;79.64;95316.08;1600465;88;20992;-83
2022/04/05 10:21:36;;;;;;;;;;;;;;;4.68;79.22;95317.20;1628455;88;20999;-84
2022/04/05 10:24:05;;;;;;;4.90;4.42;;;;;;;4.65;79.08;95318.83;1608560;88;20123;-84
2022/04/05 10:26:36;;;;;;;4.90;4.40;;;;;;;4.65;79.08;95316.26;1604711;88;21089;-85
2022/04/05 10:29:07;;;;;;;4.37;3.95;;;;;;;4.67;79.08;95305.80;1601000;88;21057;-84
2022/04/05 10:31:51;;;;;;;4.05;3.65;;;;;;;4.75;79.30;95314.76;1604114;88;21363;-84
2022/04/05 10:34:26;;;;;;;3.27;3.00;;;;;;;4.88;79.16;95312.42;1599414;90;21506;-84
2022/04/05 10:37:18;;;;;;;4.22;3.75;;;;;;;4.96;78.31;95308.48;1599662;90;21437;-84
2022/04/05 10:40:02;;;;;;;4.00;3.58;;;;;;;4.98;78.16;95316.03;1606889;88;21055;-83
2022/04/05 10:42:39;;;;;;;3.80;3.37;;;;;;;5.04;78.25;95316.61;1615507;88;21107;-83
2022/04/05 10:45:21;;;;;;;3.72;3.40;;;;;;;5.06;78.00;95312.11;1604016;88;21038;-83
2022/04/05 10:48:13;;;;;;;4.70;3.20;;;;;;;5.08;77.82;95312.25;1582841;88;21930;-83
2022/04/05 10:50:41;;;;;;;3.40;3.10;;;;;;;5.12;77.44;95317.84;1620283;88;21091;-83
2022/04/05 10:53:20;;;;;;;3.90;3.60;;;;;;;5.22;77.44;95326.14;1618043;88;21146;-83
2022/04/05 10:56:10;;;;;;;3.72;3.37;;;;;;;5.34;77.18;95318.28;1610109;88;21051;-83
2022/04/05 10:58:49;;;;;;;4.42;4.03;;;;;;;5.49;76.58;95322.66;1612411;88;21393;-83
2022/04/05 11:01:21;;;;;;;7.53;6.50;;;;;;;5.63;76.51;95325.26;1611661;88;21372;-83
2022/04/05 11:07:07;;;;;;;4.40;4.00;;;;;;;5.91;75.41;95331.93;1640867;87;20332;-83
2022/04/05 11:09:44;;;;;;;4.15;3.75;;;;;;;5.98;74.98;95328.14;1642045;87;20963;-83
2022/04/05 11:12:24;;;;;;;4.33;3.92;;;;;;;5.96;74.37;95329.61;1636705;87;21433;-83
2022/04/05 11:14:55;;;;;;;4.92;4.40;;;;;;;5.99;74.58;95336.98;1639468;87;21054;-84
2022/04/05 11:17:24;;;;;;;4.95;4.45;;;;;;;5.97;74.66;95344.09;1626852;88;21043;-83
2022/04/05 11:19:51;;;;;;;4.30;3.90;;;;;;;5.95;74.58;95342.19;1626710;88;21074;-83
2022/04/05 11:22:26;;;;;;;4.45;4.05;;;;;;;5.90;74.56;95350.16;1650319;87;21322;-83
2022/04/05 11:25:13;;;;;;;5.05;4.50;;;;;;;5.89;74.66;95350.62;1629379;87;21010;-83
2022/04/05 11:27:47;;;;;;;4.60;4.20;;;;;;;5.94;74.63;95336.72;1644074;87;21003;-83
2022/04/05 11:30:28;;;;;;;4.22;3.83;;;;;;;6.00;74.49;95338.58;1627932;87;21030;-83
2022/04/05 11:33:32;;;;;;;4.70;4.30;;;;;;;6.03;74.42;95336.65;1646806;87;21006;-83
2022/04/05 11:35:59;;;;;;;5.90;4.67;;;;;;;6.07;74.07;95339.17;1640273;87;21065;-85
2022/04/05 11:38:29;;;;;;;5.47;4.92;;;;;;;6.18;74.36;95339.53;1636744;87;20970;-83
2022/04/05 11:41:03;;;;;;;4.35;3.95;;;;;;;6.21;73.77;95346.10;1636157;87;21029;-83
2022/04/05 11:43:32;;;;;;;5.50;5.00;;;;;;;6.25;73.84;95335.23;1630678;87;21046;-83
2022/04/05 11:46:09;;;;;;;10.48;9.40;;;;;;;6.38;73.88;95341.55;1633047;87;21113;-83
2022/04/05 11:48:35;;;;;;;5.17;4.70;;;;;;;6.53;73.72;95346.19;1638919;85;22101;-83
2022/04/05 11:51:03;;;;;;;5.00;4.60;;;;;;;6.68;73.49;95331.95;1602255;87;21125;-83